N.dadayli — TCCW7 — position and weather

sailwx.info

Track history (hours):
 
Tides and Currents Weather Stations Pressure Air Temp Water Temp Dewpoint Dewpoint Depression Visibility Wind Speed Wind Dir Waves Ship Positions

N.dadayli

Last reported at 2017-Feb-23 23:33 UTC. Time now 2017-Feb-23 23:55 UTC.
Position N 38°44' W 009°06'.

Length 101 m; draft 5.1 m.

Type: Cargo ship. MMSI: 271000768.

Date/timePositionNaut miles runAvg speedWind from/ knotsBaromVisibWave heightAir tempDewpointWater temp
2017-Feb-23 23:33N 38°44' W 009°06'0 0.0
2017-Feb-23 22:30N 38°44' W 009°06'0 0.0
2017-Feb-23 21:33N 38°44' W 009°06'0 0.0
2017-Feb-23 20:33N 38°44' W 009°06'0 0.0
2017-Feb-23 19:28N 38°44' W 009°06'0 0.0
2017-Feb-23 18:34N 38°44' W 009°06'0 0.0
2017-Feb-23 17:31N 38°44' W 009°06'0 0.0
2017-Feb-23 16:31N 38°44' W 009°06'0 0.0
2017-Feb-23 15:34N 38°44' W 009°06'0 0.0
2017-Feb-23 14:31N 38°44' W 009°06'0 0.0
2017-Feb-23 13:13N 38°44' W 009°06'0 0.0
2017-Feb-23 12:34N 38°44' W 009°06'0 0.0
2017-Feb-23 11:34N 38°44' W 009°06'1 0.9
2017-Feb-23 10:33N 38°43' W 009°07'1110.9
2017-Feb-23 09:33N 38°39' W 009°20'1010.3
2017-Feb-23 08:33N 38°29' W 009°22'1110.8
2017-Feb-23 07:33N 38°18' W 009°22'10 9.8
2017-Feb-23 06:33N 38°09' W 009°22'1010.0
2017-Feb-23 05:33N 37°59' W 009°20'1010.4
2017-Feb-23 04:33N 37°48' W 009°21'1010.4
2017-Feb-23 03:33N 37°38' W 009°21'1010.4
2017-Feb-23 02:33N 37°27' W 009°21'1110.5
2017-Feb-23 01:33N 37°17' W 009°21'1110.6
2017-Feb-23 00:33N 37°06' W 009°20'1110.7
2017-Feb-22 23:33N 36°56' W 009°19'18510.8
2017-Feb-22 06:33N 35°58' W 005°41'1010.6
2017-Feb-22 05:33N 36°00' W 005°28'1110.5
2017-Feb-22 04:33N 36°03' W 005°16'1211.9
2017-Feb-22 03:33N 36°09' W 005°03'  
2017-Feb-15 09:05N 37°04' E 013°35'610.5
2017-Feb-15 08:33N 37°01' E 013°41'1110.8
2017-Feb-15 07:33N 36°56' E 013°53'1110.9
2017-Feb-15 06:33N 36°51' E 014°05'1110.8
2017-Feb-15 05:33N 36°46' E 014°17'1110.5
2017-Feb-15 04:33N 36°42' E 014°29'  
Track history (hours):
 
Tides and Currents Weather Stations Pressure Air Temp Water Temp Dewpoint Dewpoint Depression Visibility Wind Speed Wind Dir Waves Ship Positions

N.dadayli

Last reported at 2017-Feb-23 23:33 UTC. Time now 2017-Feb-23 23:55 UTC.
Position N 38°44' W 009°06'.

Length 101 m; draft 5.1 m.

Type: Cargo ship. MMSI: 271000768.

Date/timePositionNaut miles runAvg speedWind from/ knotsBaromVisibWave heightAir tempDewpointWater temp
2017-Feb-23 23:33N 38°44' W 009°06'0 0.0
2017-Feb-23 22:30N 38°44' W 009°06'0 0.0
2017-Feb-23 21:33N 38°44' W 009°06'0 0.0
2017-Feb-23 20:33N 38°44' W 009°06'0 0.0
2017-Feb-23 19:28N 38°44' W 009°06'0 0.0
2017-Feb-23 18:34N 38°44' W 009°06'0 0.0
2017-Feb-23 17:31N 38°44' W 009°06'0 0.0
2017-Feb-23 16:31N 38°44' W 009°06'0 0.0
2017-Feb-23 15:34N 38°44' W 009°06'0 0.0
2017-Feb-23 14:31N 38°44' W 009°06'0 0.0
2017-Feb-23 13:13N 38°44' W 009°06'0 0.0
2017-Feb-23 12:34N 38°44' W 009°06'0 0.0
2017-Feb-23 11:34N 38°44' W 009°06'1 0.9
2017-Feb-23 10:33N 38°43' W 009°07'1110.9
2017-Feb-23 09:33N 38°39' W 009°20'1010.3
2017-Feb-23 08:33N 38°29' W 009°22'1110.8
2017-Feb-23 07:33N 38°18' W 009°22'10 9.8
2017-Feb-23 06:33N 38°09' W 009°22'1010.0
2017-Feb-23 05:33N 37°59' W 009°20'1010.4
2017-Feb-23 04:33N 37°48' W 009°21'1010.4
2017-Feb-23 03:33N 37°38' W 009°21'1010.4
2017-Feb-23 02:33N 37°27' W 009°21'1110.5
2017-Feb-23 01:33N 37°17' W 009°21'1110.6
2017-Feb-23 00:33N 37°06' W 009°20'1110.7
2017-Feb-22 23:33N 36°56' W 009°19'18510.8
2017-Feb-22 06:33N 35°58' W 005°41'1010.6
2017-Feb-22 05:33N 36°00' W 005°28'1110.5
2017-Feb-22 04:33N 36°03' W 005°16'1211.9
2017-Feb-22 03:33N 36°09' W 005°03'  
2017-Feb-15 09:05N 37°04' E 013°35'610.5
2017-Feb-15 08:33N 37°01' E 013°41'1110.8
2017-Feb-15 07:33N 36°56' E 013°53'1110.9
2017-Feb-15 06:33N 36°51' E 014°05'1110.8
2017-Feb-15 05:33N 36°46' E 014°17'1110.5
2017-Feb-15 04:33N 36°42' E 014°29'  

Dump ship's entire track history